createdAt,value
2023-04-20T00:00:29.531Z,25.41
2023-04-20T00:01:29.549Z,25.47
2023-04-20T00:02:29.625Z,25.40
2023-04-20T00:03:29.560Z,25.45
2023-04-20T00:04:29.467Z,25.42
2023-04-20T00:05:29.508Z,25.42
2023-04-20T00:06:29.489Z,25.44
2023-04-20T00:07:29.460Z,25.42
2023-04-20T00:08:29.422Z,25.45
2023-04-20T00:09:29.441Z,25.47
2023-04-20T00:10:29.398Z,25.42
2023-04-20T00:11:29.330Z,25.48
2023-04-20T00:12:29.297Z,25.47
2023-04-20T00:13:29.251Z,25.43
2023-04-20T00:14:29.155Z,25.45
2023-04-20T00:15:29.094Z,25.45
2023-04-20T00:16:29.074Z,25.45
2023-04-20T00:17:29.030Z,25.49
2023-04-20T00:18:28.932Z,25.47
2023-04-20T00:19:28.858Z,25.49
2023-04-20T00:20:28.853Z,25.44
2023-04-20T00:21:28.747Z,25.51
2023-04-20T00:22:28.708Z,25.52
2023-04-20T00:23:28.670Z,25.47
2023-04-20T00:24:28.593Z,25.44
2023-04-20T00:25:28.533Z,25.45
2023-04-20T00:26:28.468Z,25.49
2023-04-20T00:27:28.428Z,25.51
2023-04-20T00:28:28.408Z,25.47
2023-04-20T00:29:28.382Z,25.47
2023-04-20T00:30:28.371Z,25.57
2023-04-20T00:31:28.363Z,25.51
2023-04-20T00:32:28.411Z,25.47
2023-04-20T00:33:28.329Z,25.51
2023-04-20T00:34:28.210Z,25.48
2023-04-20T00:35:28.166Z,25.48
2023-04-20T00:36:28.101Z,25.55
2023-04-20T00:37:28.077Z,25.55
2023-04-20T00:38:28.014Z,25.53
2023-04-20T00:39:27.928Z,25.51
2023-04-20T00:40:27.873Z,25.55
2023-04-20T00:41:27.838Z,25.52
2023-04-20T00:42:27.786Z,25.55
2023-04-20T00:43:27.709Z,25.55
2023-04-20T00:44:27.638Z,25.54
2023-04-20T00:45:27.598Z,25.58
2023-04-20T00:46:27.588Z,25.55
2023-04-20T00:47:27.538Z,25.55
2023-04-20T00:48:27.446Z,25.48
2023-04-20T00:49:27.441Z,25.55
2023-04-20T00:50:27.424Z,25.52
2023-04-20T00:51:27.414Z,25.59
2023-04-20T00:52:27.399Z,25.57
2023-04-20T00:53:27.385Z,25.55
2023-04-20T00:54:27.317Z,25.55
2023-04-20T00:55:27.278Z,25.55
2023-04-20T00:56:27.210Z,25.57
2023-04-20T00:57:27.143Z,25.55
2023-04-20T00:58:27.073Z,25.55
2023-04-20T00:59:27.020Z,25.54
2023-04-20T01:00:26.975Z,25.57
2023-04-20T01:01:26.915Z,25.55
2023-04-20T01:02:26.973Z,25.55
2023-04-20T01:03:26.930Z,25.54
2023-04-20T01:04:26.826Z,25.52
2023-04-20T01:05:26.675Z,25.55
2023-04-20T01:06:26.616Z,25.51
2023-04-20T01:07:26.553Z,25.54
2023-04-20T01:08:26.527Z,25.58
2023-04-20T01:09:26.508Z,25.57
2023-04-20T01:10:26.476Z,25.54
2023-04-20T01:11:26.484Z,25.62
2023-04-20T01:12:26.448Z,25.62
2023-04-20T01:13:26.449Z,25.62
2023-04-20T01:14:26.419Z,25.59
2023-04-20T01:15:26.386Z,25.61
2023-04-20T01:16:26.440Z,25.55
2023-04-20T01:17:26.366Z,25.58
2023-04-20T01:18:26.264Z,25.59
2023-04-20T01:19:26.205Z,25.60
2023-04-20T01:20:26.147Z,25.61
2023-04-20T01:21:26.087Z,25.58
2023-04-20T01:22:26.024Z,25.58
2023-04-20T01:23:25.965Z,25.61
2023-04-20T01:24:25.906Z,25.58
2023-04-20T01:25:25.851Z,25.58
2023-04-20T01:26:25.814Z,25.57
2023-04-20T01:27:25.728Z,25.58
2023-04-20T01:28:25.659Z,25.60
2023-04-20T01:29:25.624Z,25.60
2023-04-20T01:30:25.566Z,25.58
2023-04-20T01:31:25.567Z,25.57
2023-04-20T01:32:25.492Z,25.61
2023-04-20T01:33:25.462Z,25.62
2023-04-20T01:34:25.458Z,25.60
2023-04-20T01:35:25.433Z,25.60
2023-04-20T01:36:25.425Z,25.58
2023-04-20T01:37:25.401Z,25.64
2023-04-20T01:38:25.404Z,25.60
2023-04-20T01:39:25.390Z,25.58
2023-04-20T01:40:25.375Z,25.62
2023-04-20T01:41:25.372Z,25.61
2023-04-20T01:42:25.339Z,25.65
2023-04-20T01:43:25.318Z,25.61
2023-04-20T01:44:25.328Z,25.61
2023-04-20T01:45:25.280Z,25.64
2023-04-20T01:46:25.235Z,25.64
2023-04-20T01:47:25.168Z,25.62
2023-04-20T01:48:25.116Z,25.65
2023-04-20T01:49:25.017Z,25.64
2023-04-20T01:50:24.959Z,25.64
2023-04-20T01:51:24.894Z,25.67
2023-04-20T01:52:24.847Z,25.64
2023-04-20T01:53:24.774Z,25.68
2023-04-20T01:54:24.726Z,25.61
2023-04-20T01:55:24.657Z,25.61
2023-04-20T01:56:24.581Z,25.58
2023-04-20T01:57:24.528Z,25.60
2023-04-20T01:58:24.463Z,25.58
2023-04-20T01:59:24.417Z,25.58
2023-04-20T02:00:24.410Z,25.63
2023-04-20T02:01:24.431Z,25.57
2023-04-20T02:02:24.448Z,25.54
2023-04-20T02:03:24.390Z,25.57
2023-04-20T02:04:24.293Z,25.58
2023-04-20T02:05:24.299Z,25.57
2023-04-20T02:06:24.263Z,25.55
2023-04-20T02:07:24.276Z,25.51
2023-04-20T02:08:24.224Z,25.48
2023-04-20T02:09:24.226Z,25.49
2023-04-20T02:10:24.191Z,25.47
2023-04-20T02:11:24.164Z,25.51
2023-04-20T02:12:24.134Z,25.49
2023-04-20T02:13:24.137Z,25.48
2023-04-20T02:14:24.116Z,25.48
2023-04-20T02:15:24.096Z,25.47
2023-04-20T02:16:24.073Z,25.43
2023-04-20T02:17:24.169Z,25.47
2023-04-20T02:18:24.041Z,25.47
2023-04-20T02:20:43.182Z,25.44
2023-04-20T02:21:43.151Z,25.40
2023-04-20T02:22:43.144Z,25.44
2023-04-20T02:23:43.137Z,25.41
2023-04-20T02:24:43.131Z,25.49
2023-04-20T02:25:43.089Z,25.52
2023-04-20T02:26:43.086Z,25.48
2023-04-20T02:27:43.082Z,25.48
2023-04-20T02:28:43.061Z,25.47
2023-04-20T02:29:43.065Z,25.48
2023-04-20T02:30:43.039Z,25.45
2023-04-20T02:31:43.100Z,25.43
2023-04-20T02:32:43.028Z,25.45
2023-04-20T02:33:43.002Z,25.44
2023-04-20T02:34:42.961Z,25.44
2023-04-20T02:35:42.965Z,25.37
2023-04-20T02:36:42.964Z,25.42
2023-04-20T02:37:42.939Z,25.48
2023-04-20T02:38:42.938Z,25.35
2023-04-20T02:39:42.900Z,25.22
2023-04-20T02:40:42.882Z,25.22
2023-04-20T02:41:42.881Z,25.21
2023-04-20T02:42:42.852Z,25.18
2023-04-20T02:43:42.839Z,25.25
2023-04-20T02:44:42.840Z,25.28
2023-04-20T02:45:42.813Z,25.27
2023-04-20T02:46:42.800Z,25.18
2023-04-20T02:47:42.814Z,25.24
2023-04-20T02:48:42.747Z,25.20
2023-04-20T02:49:42.739Z,25.24
2023-04-20T02:50:42.711Z,25.20
2023-04-20T02:51:42.709Z,25.25
2023-04-20T02:52:42.680Z,25.23
2023-04-20T02:53:42.699Z,25.20
2023-04-20T02:54:42.650Z,25.21
2023-04-20T02:55:42.635Z,25.25
2023-04-20T02:56:42.633Z,25.20
2023-04-20T02:57:42.590Z,25.22
2023-04-20T02:58:42.592Z,25.22
2023-04-20T02:59:42.559Z,25.21
2023-04-20T03:00:42.561Z,25.13
2023-04-20T03:01:42.634Z,25.15
2023-04-20T03:02:42.595Z,25.14
2023-04-20T03:03:42.669Z,25.15
2023-04-20T03:04:42.509Z,25.20
2023-04-20T03:05:42.482Z,25.15
2023-04-20T03:06:42.459Z,25.16
2023-04-20T03:07:42.449Z,25.17
2023-04-20T03:08:42.460Z,25.09
2023-04-20T03:09:42.404Z,25.11
2023-04-20T03:10:42.400Z,25.13
2023-04-20T03:11:42.394Z,25.13
2023-04-20T03:12:42.368Z,25.11
2023-04-20T03:13:42.381Z,25.10
2023-04-20T03:14:42.353Z,25.07
2023-04-20T03:15:42.351Z,25.10
2023-04-20T03:16:42.392Z,25.13
2023-04-20T03:17:42.341Z,25.13
2023-04-20T03:18:42.322Z,25.12
2023-04-20T03:19:42.316Z,25.14
2023-04-20T03:20:42.337Z,25.11
2023-04-20T03:21:42.288Z,25.05
2023-04-20T03:22:42.309Z,25.07
2023-04-20T03:23:42.285Z,25.05
2023-04-20T03:24:42.281Z,25.05
2023-04-20T03:25:42.266Z,25.06
2023-04-20T03:26:42.258Z,25.07
2023-04-20T03:27:42.264Z,25.10
2023-04-20T03:28:42.290Z,25.03
2023-04-20T03:29:42.238Z,25.03
2023-04-20T03:30:42.227Z,24.98
2023-04-20T03:31:42.277Z,24.97
2023-04-20T03:32:42.272Z,25.02
2023-04-20T03:33:42.189Z,25.07
2023-04-20T03:34:42.155Z,25.11
2023-04-20T03:35:42.139Z,25.03
2023-04-20T03:36:42.125Z,25.04
2023-04-20T03:37:42.114Z,25.04
2023-04-20T03:38:42.098Z,25.01
2023-04-20T03:39:42.079Z,25.01
2023-04-20T03:40:42.071Z,25.00
2023-04-20T03:41:42.040Z,25.02
2023-04-20T03:42:42.039Z,25.02
2023-04-20T03:43:42.008Z,25.01
2023-04-20T03:44:41.974Z,24.85
2023-04-20T03:45:42.040Z,24.95
2023-04-20T03:46:41.942Z,25.03
2023-04-20T03:47:41.995Z,25.00
2023-04-20T03:48:41.955Z,24.90
2023-04-20T03:49:41.953Z,24.72
2023-04-20T03:50:41.948Z,24.62
2023-04-20T03:51:41.941Z,24.56
2023-04-20T03:52:41.962Z,24.45
2023-04-20T03:53:41.920Z,24.45
2023-04-20T03:54:41.938Z,24.38
2023-04-20T03:55:41.886Z,24.39
2023-04-20T03:56:41.888Z,24.25
2023-04-20T03:57:41.879Z,24.12
2023-04-20T03:58:41.883Z,24.06
2023-04-20T03:59:41.876Z,24.06
2023-04-20T04:00:41.867Z,23.99
2023-04-20T04:01:41.871Z,24.00
2023-04-20T04:02:41.924Z,23.99
2023-04-20T04:03:41.995Z,23.93
2023-04-20T04:04:41.962Z,23.84
2023-04-20T04:05:41.935Z,23.90
2023-04-20T04:06:41.886Z,23.76
2023-04-20T04:07:41.881Z,23.73
2023-04-20T04:08:41.904Z,23.75
2023-04-20T04:09:41.878Z,23.75
2023-04-20T04:10:41.885Z,23.72
2023-04-20T04:11:41.912Z,23.71
2023-04-20T04:12:41.918Z,23.68
2023-04-20T04:13:41.937Z,23.58
2023-04-20T04:14:41.956Z,23.68
2023-04-20T04:15:41.934Z,23.61
2023-04-20T04:16:41.943Z,23.61
2023-04-20T04:17:41.943Z,23.55
2023-04-20T04:18:41.925Z,23.52
2023-04-20T04:19:41.911Z,23.53
2023-04-20T04:20:41.916Z,23.54
2023-04-20T04:21:41.912Z,23.57
2023-04-20T04:22:41.906Z,23.63
2023-04-20T04:23:41.929Z,23.56
2023-04-20T04:24:41.899Z,23.58
2023-04-20T04:25:41.882Z,23.61
2023-04-20T04:26:41.861Z,23.64
2023-04-20T04:27:41.875Z,23.64
2023-04-20T04:28:41.861Z,23.61
2023-04-20T04:29:41.935Z,23.61
2023-04-20T04:30:41.843Z,23.66
2023-04-20T04:31:42.028Z,23.61
2023-04-20T04:32:41.872Z,23.60
2023-04-20T04:33:41.819Z,23.61
2023-04-20T04:34:41.818Z,23.70
2023-04-20T04:35:41.873Z,23.68
2023-04-20T04:36:41.810Z,23.69
2023-04-20T04:37:41.850Z,23.74
2023-04-20T04:38:41.783Z,23.85
2023-04-20T04:39:41.780Z,23.79
2023-04-20T04:40:41.762Z,23.92
2023-04-20T04:41:41.756Z,24.01
2023-04-20T04:42:41.748Z,24.00
2023-04-20T04:43:41.752Z,24.01
2023-04-20T04:44:41.726Z,24.03
2023-04-20T04:45:41.728Z,24.09
2023-04-20T04:46:41.857Z,24.11
2023-04-20T04:47:41.742Z,24.06
2023-04-20T04:48:41.731Z,24.07
2023-04-20T04:49:41.737Z,24.08
2023-04-20T04:50:41.702Z,24.06
2023-04-20T04:51:41.696Z,24.10
2023-04-20T04:52:41.684Z,24.11
2023-04-20T04:53:41.673Z,24.11
2023-04-20T04:54:41.639Z,24.14
2023-04-20T04:55:41.645Z,24.11
2023-04-20T04:56:41.612Z,24.05
2023-04-20T04:57:41.617Z,24.03
2023-04-20T04:58:41.620Z,23.96
2023-04-20T04:59:41.639Z,23.97
2023-04-20T05:00:41.581Z,24.01
2023-04-20T05:01:41.629Z,23.99
2023-04-20T05:02:41.818Z,23.93
2023-04-20T05:03:41.821Z,24.00
2023-04-20T05:04:41.717Z,23.94
2023-04-20T05:05:41.663Z,24.05
2023-04-20T05:06:41.655Z,23.98
2023-04-20T05:07:41.628Z,24.13
2023-04-20T05:08:41.655Z,24.05
2023-04-20T05:09:41.595Z,24.14
2023-04-20T05:10:41.625Z,24.11
2023-04-20T05:11:41.598Z,24.21
2023-04-20T05:12:41.564Z,24.12
2023-04-20T05:13:41.568Z,24.26
2023-04-20T05:14:41.546Z,24.34
2023-04-20T05:15:43.740Z,24.28
2023-04-20T05:16:41.556Z,24.27
2023-04-20T05:17:41.593Z,24.34
2023-04-20T05:18:41.569Z,24.38
2023-04-20T05:19:41.614Z,24.34
2023-04-20T05:20:41.619Z,24.43
2023-04-20T05:21:41.657Z,24.40
2023-04-20T05:22:41.693Z,24.43
2023-04-20T05:23:41.728Z,24.50
2023-04-20T05:24:41.747Z,24.50
2023-04-20T05:25:41.781Z,24.43
2023-04-20T05:26:41.809Z,24.43
2023-04-20T05:27:41.866Z,24.46
2023-04-20T05:28:41.951Z,24.51
2023-04-20T05:29:41.935Z,24.40
2023-04-20T05:30:41.955Z,24.57
2023-04-20T05:31:42.023Z,24.49
2023-04-20T05:32:43.144Z,24.47
2023-04-20T05:33:42.078Z,24.48
2023-04-20T05:34:42.092Z,24.51
2023-04-20T05:35:42.139Z,24.52
2023-04-20T05:36:42.173Z,24.53
2023-04-20T05:37:42.229Z,24.48
2023-04-20T05:38:42.301Z,24.52
2023-04-20T05:39:42.317Z,24.53
2023-04-20T05:40:42.292Z,24.48
2023-04-20T05:41:42.280Z,24.44
2023-04-20T05:42:42.283Z,24.48
2023-04-20T05:43:42.281Z,24.41
2023-04-20T05:44:42.273Z,24.43
2023-04-20T05:45:42.362Z,24.36
2023-04-20T05:46:42.270Z,24.38
2023-04-20T05:47:42.466Z,24.35
2023-04-20T05:48:42.302Z,24.34
2023-04-20T05:49:42.246Z,24.29
2023-04-20T05:50:42.299Z,24.32
2023-04-20T05:51:42.345Z,24.30
2023-04-20T05:52:42.390Z,24.35
2023-04-20T05:53:42.550Z,24.39
2023-04-20T05:54:43.427Z,24.40
2023-04-20T05:55:42.514Z,24.40
2023-04-20T05:56:42.562Z,24.43
2023-04-20T05:57:42.614Z,24.44
2023-04-20T05:58:42.646Z,24.46
2023-04-20T05:59:42.589Z,24.45
2023-04-20T06:00:42.623Z,24.45
2023-04-20T06:01:42.617Z,24.43
2023-04-20T06:02:42.764Z,24.51
2023-04-20T06:03:42.721Z,24.44
2023-04-20T06:04:42.647Z,24.42
2023-04-20T06:05:42.644Z,24.40
2023-04-20T06:06:42.542Z,24.50
2023-04-20T06:07:42.486Z,24.46
2023-04-20T06:08:42.525Z,24.46
2023-04-20T06:09:42.460Z,24.42
2023-04-20T06:12:01.606Z,24.45
2023-04-20T06:13:02.084Z,24.40
2023-04-20T06:14:01.640Z,24.46
2023-04-20T06:15:01.620Z,24.40
2023-04-20T06:16:01.635Z,24.41
2023-04-20T06:17:01.579Z,24.41
2023-04-20T06:18:01.649Z,24.45
2023-04-20T06:19:01.585Z,24.39
2023-04-20T06:20:01.523Z,24.40
2023-04-20T06:21:01.524Z,24.36
2023-04-20T06:22:01.486Z,24.33
2023-04-20T06:23:01.480Z,24.27
2023-04-20T06:24:01.484Z,24.30
2023-04-20T06:25:01.451Z,24.27
2023-04-20T06:26:01.460Z,24.26
2023-04-20T06:27:01.425Z,24.24
2023-04-20T06:28:01.433Z,24.26
2023-04-20T06:29:01.416Z,24.33
2023-04-20T06:30:01.435Z,24.39
2023-04-20T06:31:01.389Z,24.46
2023-04-20T06:32:01.366Z,24.44
2023-04-20T06:33:01.456Z,24.41
2023-04-20T06:34:01.390Z,24.30
2023-04-20T06:35:02.360Z,24.13
2023-04-20T06:36:01.286Z,24.01
2023-04-20T06:37:01.304Z,23.95
2023-04-20T06:38:01.269Z,23.88
2023-04-20T06:39:01.295Z,23.81
2023-04-20T06:40:01.267Z,23.77
2023-04-20T06:41:01.241Z,23.77
2023-04-20T06:42:01.241Z,23.77
2023-04-20T06:43:01.230Z,23.78
2023-04-20T06:44:01.281Z,23.74
2023-04-20T06:45:01.307Z,23.74
2023-04-20T06:46:01.320Z,23.71
2023-04-20T06:47:01.472Z,23.64
2023-04-20T06:48:01.459Z,23.64
2023-04-20T06:49:01.436Z,23.58
2023-04-20T06:50:02.333Z,23.58
2023-04-20T06:51:01.523Z,23.61
2023-04-20T06:52:02.387Z,23.58
2023-04-20T06:53:01.454Z,23.62
2023-04-20T06:54:01.469Z,23.57
2023-04-20T06:55:01.476Z,23.57
2023-04-20T06:56:01.426Z,23.64
2023-04-20T06:57:01.421Z,23.64
2023-04-20T06:58:01.423Z,23.62
2023-04-20T06:59:01.826Z,23.69
2023-04-20T07:00:01.389Z,23.72
2023-04-20T07:01:01.440Z,23.70
2023-04-20T07:02:01.667Z,23.73
2023-04-20T07:03:01.557Z,23.68
2023-04-20T07:04:01.528Z,23.70
2023-04-20T07:05:01.404Z,23.79
2023-04-20T07:06:01.425Z,23.78
2023-04-20T07:07:01.450Z,23.86
2023-04-20T07:08:01.497Z,23.87
2023-04-20T07:09:01.525Z,23.95
2023-04-20T07:10:01.526Z,23.88
2023-04-20T07:11:01.579Z,24.01
2023-04-20T07:12:01.593Z,23.95
2023-04-20T07:13:01.671Z,23.97
2023-04-20T07:14:01.702Z,23.98
2023-04-20T07:15:01.712Z,24.01
2023-04-20T07:16:01.812Z,23.99
2023-04-20T07:17:01.781Z,23.92
2023-04-20T07:18:01.925Z,23.95
2023-04-20T07:19:01.938Z,23.95
2023-04-20T07:20:01.890Z,23.91
2023-04-20T07:21:01.918Z,23.92
2023-04-20T07:22:01.956Z,23.90
2023-04-20T07:23:01.988Z,23.90
2023-04-20T07:24:02.022Z,23.96
2023-04-20T07:25:02.051Z,23.93
2023-04-20T07:26:02.087Z,24.03
2023-04-20T07:27:02.127Z,24.02
2023-04-20T07:28:02.172Z,23.99
2023-04-20T07:29:02.327Z,24.07
2023-04-20T07:30:02.273Z,24.03
2023-04-20T07:31:02.305Z,24.04
2023-04-20T07:32:02.412Z,24.10
2023-04-20T07:33:02.401Z,24.04
2023-04-20T07:34:03.743Z,24.11
2023-04-20T07:35:02.318Z,24.10
2023-04-20T07:36:02.309Z,24.15
2023-04-20T07:37:02.350Z,24.21
2023-04-20T07:38:02.333Z,24.19
2023-04-20T07:39:02.318Z,24.18
2023-04-20T07:40:02.302Z,24.26
2023-04-20T07:41:02.308Z,24.28
2023-04-20T07:42:02.286Z,24.28
2023-04-20T07:43:02.344Z,24.36
2023-04-20T07:44:02.302Z,24.33
2023-04-20T07:45:02.362Z,24.26
2023-04-20T07:46:02.417Z,24.36
2023-04-20T07:47:02.904Z,24.29
2023-04-20T07:48:02.549Z,24.34
2023-04-20T07:49:02.541Z,24.29
2023-04-20T07:50:02.542Z,24.40
2023-04-20T07:51:02.632Z,24.46
2023-04-20T07:52:15.132Z,24.47
2023-04-20T07:53:03.749Z,24.43
2023-04-20T07:54:02.736Z,24.50
2023-04-20T07:55:02.682Z,24.47
2023-04-20T07:56:02.633Z,24.47
2023-04-20T07:57:02.628Z,24.50
2023-04-20T07:58:05.343Z,24.49
2023-04-20T07:59:02.624Z,24.51
2023-04-20T08:00:03.406Z,24.55
2023-04-20T08:01:02.617Z,24.49
2023-04-20T08:02:02.695Z,24.52
2023-04-20T08:03:02.722Z,24.55
2023-04-20T08:04:02.893Z,24.55
2023-04-20T08:05:03.310Z,24.53
2023-04-20T08:06:02.690Z,24.52
2023-04-20T08:07:02.572Z,24.56
2023-04-20T08:08:02.541Z,24.57
2023-04-20T08:09:02.545Z,24.60
2023-04-20T08:10:03.405Z,24.57
2023-04-20T08:11:02.563Z,24.63
2023-04-20T08:12:02.533Z,24.68
2023-04-20T08:13:02.552Z,24.68
2023-04-20T08:14:03.997Z,24.70
2023-04-20T08:15:02.517Z,24.68
2023-04-20T08:16:02.565Z,24.75
2023-04-20T08:17:02.494Z,24.74
2023-04-20T08:18:02.616Z,24.78
2023-04-20T08:19:02.489Z,24.84
2023-04-20T08:20:02.523Z,24.82
2023-04-20T08:21:02.460Z,24.89
2023-04-20T08:22:03.454Z,25.01
2023-04-20T08:23:02.566Z,25.11
2023-04-20T08:24:05.893Z,25.17
2023-04-20T08:25:02.462Z,25.22
2023-04-20T08:26:02.414Z,25.32
2023-04-20T08:27:03.371Z,25.36
2023-04-20T08:28:02.748Z,25.40
2023-04-20T08:29:02.410Z,25.48
2023-04-20T08:30:02.374Z,25.45
2023-04-20T08:31:02.485Z,25.57
2023-04-20T08:32:02.507Z,25.59
2023-04-20T08:33:02.367Z,25.64
2023-04-20T08:34:02.449Z,25.68
2023-04-20T08:35:02.381Z,25.70
2023-04-20T08:36:02.323Z,25.68
2023-04-20T08:37:02.352Z,25.76
2023-04-20T08:38:02.332Z,25.76
2023-04-20T08:39:02.348Z,25.78
2023-04-20T08:40:02.290Z,25.82
2023-04-20T08:41:02.352Z,25.75
2023-04-20T08:42:02.313Z,25.87
2023-04-20T08:43:02.349Z,25.84
2023-04-20T08:44:02.285Z,25.74
2023-04-20T08:45:02.301Z,25.74
2023-04-20T08:46:02.355Z,25.78
2023-04-20T08:47:02.394Z,25.81
2023-04-20T08:48:02.284Z,25.73
2023-04-20T08:49:02.269Z,25.70
2023-04-20T08:50:02.234Z,25.73
2023-04-20T08:51:02.269Z,25.68
2023-04-20T08:52:02.241Z,25.76
2023-04-20T08:53:02.210Z,25.67
2023-04-20T08:54:02.207Z,25.67
2023-04-20T08:55:02.862Z,25.60
2023-04-20T08:56:02.216Z,25.62
2023-04-20T08:57:02.184Z,25.60
2023-04-20T08:58:02.175Z,25.52
2023-04-20T08:59:02.198Z,25.43
2023-04-20T09:00:02.152Z,25.43
2023-04-20T09:01:02.157Z,25.40
2023-04-20T09:02:02.177Z,25.29
2023-04-20T09:03:02.416Z,25.27
2023-04-20T09:04:02.304Z,25.21
2023-04-20T09:05:02.288Z,25.19
2023-04-20T09:06:02.089Z,25.09
2023-04-20T09:07:02.092Z,25.05
2023-04-20T09:08:02.082Z,25.03
2023-04-20T09:09:02.339Z,24.93
2023-04-20T09:10:02.079Z,24.91
2023-04-20T09:11:02.071Z,24.84
2023-04-20T09:12:02.088Z,24.87
2023-04-20T09:13:02.134Z,24.83
2023-04-20T09:14:02.055Z,24.77
2023-04-20T09:15:02.045Z,24.70
2023-04-20T09:16:02.081Z,24.66
2023-04-20T09:17:02.071Z,24.65
2023-04-20T09:18:02.918Z,24.58
2023-04-20T09:19:02.031Z,24.55
2023-04-20T09:20:01.970Z,24.55
2023-04-20T09:21:01.945Z,24.44
2023-04-20T09:22:01.911Z,24.53
2023-04-20T09:23:01.947Z,24.46
2023-04-20T09:24:01.901Z,24.44
2023-04-20T09:25:02.046Z,24.43
2023-04-20T09:26:02.049Z,24.40
2023-04-20T09:27:01.852Z,24.42
2023-04-20T09:28:01.823Z,24.35
2023-04-20T09:29:01.813Z,24.35
2023-04-20T09:30:01.785Z,24.34
2023-04-20T09:31:01.775Z,24.31
2023-04-20T09:32:01.777Z,24.35
2023-04-20T09:33:01.802Z,24.37
2023-04-20T09:34:01.751Z,24.34
2023-04-20T09:35:01.795Z,24.35
2023-04-20T09:36:01.685Z,24.33
2023-04-20T09:37:01.656Z,24.29
2023-04-20T09:38:01.657Z,24.32
2023-04-20T09:39:01.617Z,24.26
2023-04-20T09:40:01.616Z,24.29
2023-04-20T09:41:01.591Z,24.25
2023-04-20T09:42:01.598Z,24.25
2023-04-20T09:43:01.598Z,24.31
2023-04-20T09:44:01.523Z,24.25
2023-04-20T09:45:01.526Z,24.27
2023-04-20T09:46:01.608Z,24.20
2023-04-20T09:47:01.464Z,24.17
2023-04-20T09:48:01.492Z,24.18
2023-04-20T09:49:01.502Z,24.11
2023-04-20T09:50:14.625Z,24.13
2023-04-20T09:51:02.356Z,24.16
2023-04-20T09:52:01.350Z,24.12
2023-04-20T09:53:01.329Z,24.11
2023-04-20T09:54:01.298Z,24.15
2023-04-20T09:55:01.296Z,24.11
2023-04-20T09:56:01.265Z,24.13
2023-04-20T09:57:01.245Z,24.13
2023-04-20T09:58:01.236Z,24.10
2023-04-20T09:59:01.242Z,24.06
2023-04-20T10:00:01.188Z,24.05
2023-04-20T10:01:01.238Z,24.09
2023-04-20T10:02:01.263Z,24.09
2023-04-20T10:03:01.458Z,24.08
2023-04-20T10:04:01.266Z,24.09
2023-04-20T10:05:01.080Z,24.09
2023-04-20T10:06:01.053Z,24.09
2023-04-20T10:07:01.013Z,24.08
2023-04-20T10:08:00.986Z,24.02
2023-04-20T10:09:01.025Z,24.00
2023-04-20T10:10:00.987Z,24.05
2023-04-20T10:11:00.923Z,24.04
2023-04-20T10:12:01.877Z,23.99
2023-04-20T10:13:00.864Z,23.99
2023-04-20T10:14:00.824Z,23.93
2023-04-20T10:15:01.136Z,24.02
2023-04-20T10:16:00.805Z,24.03
2023-04-20T10:17:01.083Z,23.96
2023-04-20T10:18:00.910Z,23.98
2023-04-20T10:19:00.732Z,23.97
2023-04-20T10:20:00.710Z,23.98
2023-04-20T10:21:00.669Z,24.00
2023-04-20T10:22:00.662Z,23.95
2023-04-20T10:23:00.625Z,24.00
2023-04-20T10:24:00.604Z,23.97
2023-04-20T10:25:00.602Z,23.97
2023-04-20T10:26:00.671Z,23.95
2023-04-20T10:27:00.580Z,24.00
2023-04-20T10:28:00.537Z,23.97
2023-04-20T10:29:00.503Z,24.01
2023-04-20T10:30:00.513Z,24.00
2023-04-20T10:31:00.609Z,24.04
2023-04-20T10:32:00.610Z,24.03
2023-04-20T10:33:00.685Z,24.07
2023-04-20T10:34:00.682Z,24.07
2023-04-20T10:35:00.733Z,24.13
2023-04-20T10:36:00.787Z,24.07
2023-04-20T10:37:00.833Z,24.09
2023-04-20T10:38:00.889Z,24.06
2023-04-20T10:39:01.884Z,24.07
2023-04-20T10:40:01.020Z,24.04
2023-04-20T10:41:01.000Z,24.07
2023-04-20T10:42:01.048Z,24.02
2023-04-20T10:43:01.081Z,24.05
2023-04-20T10:44:03.923Z,24.03
2023-04-20T10:45:01.136Z,24.12
2023-04-20T10:46:01.109Z,24.12
2023-04-20T10:47:01.058Z,24.08
2023-04-20T10:48:01.082Z,24.12
2023-04-20T10:49:01.012Z,24.08
2023-04-20T10:50:01.013Z,24.08
2023-04-20T10:51:00.978Z,24.08
2023-04-20T10:52:00.983Z,24.11
2023-04-20T10:53:00.954Z,24.08
2023-04-20T10:54:00.937Z,24.07
2023-04-20T10:55:01.408Z,24.15
2023-04-20T10:56:00.915Z,24.11
2023-04-20T10:57:00.900Z,24.09
2023-04-20T10:58:00.872Z,24.09
2023-04-20T10:59:02.351Z,24.09
2023-04-20T11:00:00.837Z,24.11
2023-04-20T11:01:00.797Z,24.11
2023-04-20T11:02:00.834Z,24.14
2023-04-20T11:03:00.855Z,24.18
2023-04-20T11:04:00.806Z,24.14
2023-04-20T11:05:00.870Z,24.11
2023-04-20T11:06:00.696Z,24.15
2023-04-20T11:07:00.669Z,24.08
2023-04-20T11:08:00.661Z,24.12
2023-04-20T11:09:00.652Z,24.14
2023-04-20T11:10:00.610Z,24.14
2023-04-20T11:11:00.581Z,24.10
2023-04-20T11:12:01.438Z,24.12
2023-04-20T11:13:00.545Z,24.16
2023-04-20T11:14:00.515Z,24.14
2023-04-20T11:15:00.519Z,24.14
2023-04-20T11:16:00.602Z,24.18
2023-04-20T11:17:00.621Z,24.22
2023-04-20T11:18:00.638Z,24.24
2023-04-20T11:19:00.635Z,24.28
2023-04-20T11:20:00.695Z,24.28
2023-04-20T11:21:00.694Z,24.35
2023-04-20T11:22:00.729Z,24.36
2023-04-20T11:23:00.730Z,24.33
2023-04-20T11:24:00.779Z,24.37
2023-04-20T11:25:00.803Z,24.44
2023-04-20T11:26:00.819Z,24.45
2023-04-20T11:27:01.412Z,24.48
2023-04-20T11:28:00.887Z,24.42
2023-04-20T11:29:00.901Z,24.45
2023-04-20T11:30:00.998Z,24.49
2023-04-20T11:31:00.888Z,24.45
2023-04-20T11:32:01.015Z,24.42
2023-04-20T11:33:01.051Z,24.39
2023-04-20T11:34:01.003Z,24.37
2023-04-20T11:35:06.706Z,24.37
2023-04-20T11:36:01.929Z,24.29
2023-04-20T11:37:00.905Z,24.25
2023-04-20T11:38:00.890Z,24.24
2023-04-20T11:39:00.873Z,24.23
2023-04-20T11:40:00.847Z,24.16
2023-04-20T11:41:00.812Z,24.15
2023-04-20T11:42:00.812Z,24.12
2023-04-20T11:43:00.773Z,24.09
2023-04-20T11:44:00.742Z,24.09
2023-04-20T11:45:00.809Z,24.09
2023-04-20T11:46:00.751Z,24.12
2023-04-20T11:47:00.678Z,24.03
2023-04-20T11:48:00.803Z,24.04
2023-04-20T11:49:00.694Z,24.11
2023-04-20T11:50:00.718Z,24.13
2023-04-20T11:51:00.725Z,24.08
2023-04-20T11:52:00.766Z,24.06
2023-04-20T11:53:01.406Z,24.03
2023-04-20T11:54:00.760Z,24.01
2023-04-20T11:55:00.791Z,24.03
2023-04-20T11:56:00.809Z,24.09
2023-04-20T11:57:00.810Z,24.02
2023-04-20T11:58:00.799Z,24.02
2023-04-20T11:59:00.830Z,24.01
2023-04-20T12:00:00.845Z,24.04
2023-04-20T12:01:00.834Z,24.05
2023-04-20T12:02:00.900Z,24.04
2023-04-20T12:03:00.950Z,24.00
2023-04-20T12:04:01.230Z,24.04
2023-04-20T12:05:00.997Z,24.04
2023-04-20T12:06:00.910Z,24.01
2023-04-20T12:07:00.915Z,24.07
2023-04-20T12:08:00.919Z,24.07
2023-04-20T12:09:00.926Z,24.04
2023-04-20T12:10:00.936Z,24.07
2023-04-20T12:11:00.963Z,24.04
2023-04-20T12:12:00.967Z,24.02
2023-04-20T12:13:00.965Z,24.04
2023-04-20T12:14:00.996Z,24.08
2023-04-20T12:15:01.006Z,24.05
2023-04-20T12:16:01.060Z,24.07
2023-04-20T12:17:01.007Z,24.07
2023-04-20T12:18:01.044Z,24.08
2023-04-20T12:19:01.091Z,24.11
2023-04-20T12:20:03.014Z,24.10
2023-04-20T12:21:01.079Z,24.12
2023-04-20T12:22:01.076Z,24.11
2023-04-20T12:23:01.119Z,24.13
2023-04-20T12:24:01.150Z,24.07
2023-04-20T12:25:01.156Z,24.10
2023-04-20T12:26:01.157Z,24.11
2023-04-20T12:27:01.164Z,24.04
2023-04-20T12:28:01.189Z,24.07
2023-04-20T12:29:01.187Z,24.06
2023-04-20T12:30:01.234Z,24.03
2023-04-20T12:31:01.291Z,24.07
2023-04-20T12:32:01.350Z,24.08
2023-04-20T12:33:01.271Z,24.06
2023-04-20T12:34:01.298Z,24.07
2023-04-20T12:35:01.313Z,24.08
2023-04-20T12:36:01.365Z,24.13
2023-04-20T12:37:01.325Z,24.11
2023-04-20T12:38:01.344Z,24.13
2023-04-20T12:39:01.349Z,24.11
2023-04-20T12:40:01.954Z,24.16
2023-04-20T12:41:01.344Z,24.13
2023-04-20T12:42:01.352Z,24.07
2023-04-20T12:43:01.352Z,24.09
2023-04-20T12:44:04.350Z,24.13
2023-04-20T12:45:01.353Z,24.13
2023-04-20T12:46:01.402Z,24.20
2023-04-20T12:47:01.353Z,24.14
2023-04-20T12:48:01.307Z,24.19
2023-04-20T12:49:01.286Z,24.13
2023-04-20T12:50:01.272Z,24.13
2023-04-20T12:51:01.198Z,24.20
2023-04-20T12:52:01.179Z,24.17
2023-04-20T12:53:01.158Z,24.14
2023-04-20T12:54:01.152Z,24.16
2023-04-20T12:55:01.152Z,24.15